This demonstration page uses our WeatherBlox Daily Observations layout. Learn more.

39.92423, -83.80882

Hourly Observations for June 25, 2019

Temp ( °F °C ) Dew Point ( °F °C ) Humidity (%) Winds ( mph kmh ) Pressure ( in mb ) Visibility ( mi km ) Precip ( " mm )
12:56 am 00:56 Mostly Cloudy 68 20 68 20 100 100 SW 9 15 29.81 1010 10 16.0934 0 0
1:56 am 01:56 Mostly Clear 67 19.4 67 19.4 100 100 SW 9 15 29.83 1010 10 16.0934 0 0
2:56 am 02:56 Clear 66 18.9 66 18.9 100 100 SW 8 13 29.84 1011 10 16.0934 0 0
3:56 am 03:56 Clear 66 18.9 66 18.9 100 100 WSW 9 15 29.85 1011 10 16.0934 0 0
4:56 am 04:56 Clear 65 18.3 65 18.3 100 100 WSW 7 11 29.87 1012 10 16.0934 0 0
5:56 am 05:56 Clear 65 18.3 65 18.3 100 100 WSW 7 11 29.9 1013 10 16.0934 0 0
6:56 am 06:56 Sunny 64 17.8 64 17.8 100 100 WSW 7 11 29.92 1013 10 16.0934 0 0
7:56 am 07:56 Sunny 67 19.4 64 17.8 91 91 WSW 10 17 29.95 1014 10 16.0934 0 0
8:56 am 08:56 Sunny 70 21.1 64 17.8 82 82 W 10 17 29.97 1015 10 16.0934 0 0
9:56 am 09:56 Sunny 73 22.8 64 17.8 74 74 WSW 9 15 29.98 1015 10 16.0934 0 0
10:56 am 10:56 Sunny 75 23.9 65 18.3 71 71 W 14 22 29.98 1015 10 16.0934 0 0
11:56 am 11:56 Sunny 77 25 63 17.2 62 62 W 16 26 30 1016 10 16.0934 0 0
12:56 pm 12:56 Mostly Sunny 79 26.1 63 17.2 58 58 W 16 26 30 1016 10 16.0934 0 0
1:56 pm 13:56 Partly Cloudy 81 27.2 62 16.7 53 53 W 13 20 30 1016 10 16.0934 0 0
2:56 pm 14:56 Mostly Sunny 82 27.8 62 16.7 51 51 W 15 24 30 1016 10 16.0934 0 0
3:56 pm 15:56 Partly Cloudy 82 27.8 61 16.1 49 49 WSW 15 24 29.99 1016 10 16.0934 0 0
4:56 pm 16:56 Mostly Sunny 82 27.8 61 16.1 49 49 WSW 14 22 29.98 1015 10 16.0934 0 0
5:56 pm 17:56 Partly Cloudy 82 27.8 61 16.1 49 49 WSW 14 22 29.98 1015 10 16.0934 0 0
6:56 pm 18:56 Sunny 80 26.7 61 16.1 52 52 SW 13 20 29.97 1015 10 16.0934 0 0
7:56 pm 19:56 Sunny 79 26.1 61 16.1 54 54 WSW 12 19 29.99 1016 10 16.0934 0 0
8:56 pm 20:56 Sunny 76 24.4 62 16.7 62 62 SW 7 11 30 1016 10 16.0934 0 0
9:56 pm 21:56 Mostly Cloudy 71 21.7 63 17.2 76 76 SSW 5 7 30.01 1016 10 16.0934 0 0
10:56 pm 22:56 Mostly Clear 71 21.7 62 16.7 73 73 S 3 6 30.02 1017 10 16.0934 0 0
11:56 pm 23:56 Clear 69 20.6 62 16.7 78 78 Calm 30.03 1017 10 16.0934 0 0

Powered by AerisWeather